Etusivu
METAR-TAF:

METAR-TAF

Lentoasemat :

Grant County Airport

Silver City, New Mexico, Yhdysvallat

Leveyspiiri: 32-38N, Pituuspiiri: 108-09W, korkeus merenpinnasta: 1659 m

Tämänhetkinen sää

Tämä raportti tehtiin 11 minuuttia sitten, kello 18.15 UTC
Tuuli 3 kn etelästä
Lämpötila 11°C
Kosteus 40%
Ilmanpaine 1021 hPa
Näkyvyys: 16.1 km
Hajanaisia pilviä 11000 ft:n korkeudessa

METAR: KSVC 131815Z AUTO 17003KT 10SM SCT110 11/M02 A3014 RMK AO2 T01061020

Aika: 11:26 (18:26 UTC)


TAF: puuttuu

Säähavainnot ja -ennusteet yli 4000 lentoasemalta (METAR- ja TAF-raportit).

Käytössä olevat sääasemat on merkitty karttaan keltaisilla ja punaisilla pisteillä.

Aseta hiiri pisteen päälle nähdäksesi sääaseman nimen.

Klikkaa sitten nähdäksesi säähavainnot ja -ennusteet.

Kartan vaihtaminen: klikkaa mustalla rastilla varustettuja vihreitä pisteitä, niin voit zoomata sisään; viivalla varustettua vihreää pistettä, niin voit zoomata ulos tai vihreitä nuolia, niin pääset viereisille kartoille.


METAR-TAF: